createdAt,value
2018-02-19T00:00:16.802Z,1017.29
2018-02-19T00:00:42.908Z,1017.31
2018-02-19T00:01:09.003Z,1017.29
2018-02-19T00:01:35.100Z,1017.29
2018-02-19T00:02:01.207Z,1017.32
2018-02-19T00:02:27.307Z,1017.29
2018-02-19T00:02:53.421Z,1017.3
2018-02-19T00:03:19.527Z,1017.3
2018-02-19T00:03:45.625Z,1017.29
2018-02-19T00:04:11.730Z,1017.35
2018-02-19T00:04:37.826Z,1017.31
2018-02-19T00:05:03.925Z,1017.3
2018-02-19T00:05:30.034Z,1017.33
2018-02-19T00:05:56.132Z,1017.33
2018-02-19T00:06:22.232Z,1017.32
2018-02-19T00:06:48.334Z,1017.28
2018-02-19T00:07:14.434Z,1017.28
2018-02-19T00:07:40.529Z,1017.29
2018-02-19T00:08:06.689Z,1017.28
2018-02-19T00:08:32.735Z,1017.28
2018-02-19T00:08:58.855Z,1017.26
2018-02-19T00:09:24.954Z,1017.27
2018-02-19T00:09:51.060Z,1017.22
2018-02-19T00:10:17.158Z,1017.28
2018-02-19T00:10:43.258Z,1017.3
2018-02-19T00:11:09.356Z,1017.26
2018-02-19T00:11:35.460Z,1017.27
2018-02-19T00:12:01.563Z,1017.25
2018-02-19T00:12:27.663Z,1017.29
2018-02-19T00:12:53.768Z,1017.28
2018-02-19T00:13:19.879Z,1017.26
2018-02-19T00:13:45.963Z,1017.24
2018-02-19T00:14:12.083Z,1017.24
2018-02-19T00:14:38.181Z,1017.24
2018-02-19T00:15:04.287Z,1017.26
2018-02-19T00:15:30.386Z,1017.23
2018-02-19T00:15:56.485Z,1017.2
2018-02-19T00:16:22.587Z,1017.22
2018-02-19T00:16:48.723Z,1017.19
2018-02-19T00:17:14.831Z,1017.2
2018-02-19T00:17:40.925Z,1017.17
2018-02-19T00:18:07.021Z,1017.23
2018-02-19T00:18:33.122Z,1017.2
2018-02-19T00:18:59.228Z,1017.24
2018-02-19T00:19:25.330Z,1017.22
2018-02-19T00:19:51.424Z,1017.22
2018-02-19T00:20:17.526Z,1017.22
2018-02-19T00:20:43.630Z,1017.22
2018-02-19T00:21:09.728Z,1017.21
2018-02-19T00:21:35.832Z,1017.18
2018-02-19T00:22:01.945Z,1017.18
2018-02-19T00:22:28.074Z,1017.2
2018-02-19T00:22:54.172Z,1017.17
2018-02-19T00:23:20.270Z,1017.19
2018-02-19T00:23:46.376Z,1017.16
2018-02-19T00:24:12.474Z,1017.17
2018-02-19T00:24:38.581Z,1017.15
2018-02-19T00:25:04.693Z,1017.16
2018-02-19T00:25:30.831Z,1017.17
2018-02-19T00:25:56.922Z,1017.14
2018-02-19T00:26:23.033Z,1017.11
2018-02-19T00:26:49.132Z,1017.11
2018-02-19T00:27:15.255Z,1017.1
2018-02-19T00:27:41.360Z,1017.09
2018-02-19T00:28:07.461Z,1017.11
2018-02-19T00:28:33.567Z,1017.11
2018-02-19T00:28:59.679Z,1017.1
2018-02-19T00:29:25.778Z,1017.05
2018-02-19T00:29:51.880Z,1017.07
2018-02-19T00:30:17.978Z,1017.09
2018-02-19T00:30:44.086Z,1017.1
2018-02-19T00:31:10.205Z,1017.09
2018-02-19T00:31:36.301Z,1017.13
2018-02-19T00:32:02.401Z,1017.07
2018-02-19T00:32:28.504Z,1017.07
2018-02-19T00:32:54.600Z,1017.1
2018-02-19T00:33:20.702Z,1017.11
2018-02-19T00:33:46.806Z,1017.11
2018-02-19T00:34:12.902Z,1017.05
2018-02-19T00:34:39.008Z,1017.08
2018-02-19T00:35:05.103Z,1017.05
2018-02-19T00:35:31.215Z,1017.06
2018-02-19T00:35:57.304Z,1017.05
2018-02-19T00:36:23.414Z,1017.01
2018-02-19T00:36:49.508Z,1017.01
2018-02-19T00:37:15.613Z,1017.01
2018-02-19T00:37:41.702Z,1017
2018-02-19T00:38:07.810Z,1017.01
2018-02-19T00:38:33.905Z,1016.98
2018-02-19T00:39:00.008Z,1017
2018-02-19T00:39:26.109Z,1016.99
2018-02-19T00:39:52.207Z,1017.02
2018-02-19T00:40:18.314Z,1017.03
2018-02-19T00:40:44.418Z,1017.01
2018-02-19T00:41:10.528Z,1016.97
2018-02-19T00:41:36.635Z,1017.02
2018-02-19T00:42:02.741Z,1017.02
2018-02-19T00:42:28.855Z,1016.98
2018-02-19T00:42:54.959Z,1017
2018-02-19T00:43:21.061Z,1017.01
2018-02-19T00:43:47.163Z,1016.98
2018-02-19T00:44:13.285Z,1016.96
2018-02-19T00:44:39.376Z,1016.99
2018-02-19T00:45:05.492Z,1016.95
2018-02-19T00:45:31.595Z,1016.94
2018-02-19T00:45:57.690Z,1016.95
2018-02-19T00:46:23.795Z,1016.98
2018-02-19T00:46:49.893Z,1017
2018-02-19T00:47:15.996Z,1016.97
2018-02-19T00:47:42.099Z,1016.97
2018-02-19T00:48:08.210Z,1016.95
2018-02-19T00:48:34.309Z,1016.94
2018-02-19T00:49:00.415Z,1016.91
2018-02-19T00:49:26.533Z,1016.91
2018-02-19T00:49:52.636Z,1016.9
2018-02-19T00:50:18.735Z,1016.93
2018-02-19T00:50:44.833Z,1016.88
2018-02-19T00:51:10.931Z,1016.92
2018-02-19T00:51:37.035Z,1016.88
2018-02-19T00:52:03.154Z,1016.89
2018-02-19T00:52:29.253Z,1016.89
2018-02-19T00:52:55.359Z,1016.87
2018-02-19T00:53:21.460Z,1016.84
2018-02-19T00:53:47.579Z,1016.87
2018-02-19T00:54:13.674Z,1016.86
2018-02-19T00:54:39.772Z,1016.86
2018-02-19T00:55:05.892Z,1016.87
2018-02-19T00:55:31.995Z,1016.87
2018-02-19T00:55:58.092Z,1016.86
2018-02-19T00:56:24.191Z,1016.82
2018-02-19T00:56:50.291Z,1016.85
2018-02-19T00:57:16.400Z,1016.85
2018-02-19T00:57:42.498Z,1016.83
2018-02-19T00:58:08.609Z,1016.82
2018-02-19T00:58:34.715Z,1016.81
2018-02-19T00:59:00.807Z,1016.83
2018-02-19T00:59:26.920Z,1016.83
2018-02-19T00:59:53.023Z,1016.83
2018-02-19T01:00:19.142Z,1016.8
2018-02-19T01:00:45.246Z,1016.84
2018-02-19T01:01:11.337Z,1016.78
2018-02-19T01:01:37.437Z,1016.85
2018-02-19T01:02:03.557Z,1016.81
2018-02-19T01:02:29.663Z,1016.8
2018-02-19T01:02:55.769Z,1016.81
2018-02-19T01:03:21.873Z,1016.78
2018-02-19T01:03:48.176Z,1016.78
2018-02-19T01:04:14.277Z,1016.77
2018-02-19T01:04:40.374Z,1016.77
2018-02-19T01:05:06.469Z,1016.76
2018-02-19T01:05:32.591Z,1016.69
2018-02-19T01:05:58.685Z,1016.73
2018-02-19T01:06:24.788Z,1016.72
2018-02-19T01:06:50.890Z,1016.73
2018-02-19T01:07:16.988Z,1016.7
2018-02-19T01:07:43.081Z,1016.75
2018-02-19T01:08:09.201Z,1016.73
2018-02-19T01:08:35.303Z,1016.69
2018-02-19T01:09:01.410Z,1016.76
2018-02-19T01:09:27.521Z,1016.76
2018-02-19T01:09:53.653Z,1016.7
2018-02-19T01:10:19.755Z,1016.72
2018-02-19T01:10:45.857Z,1016.68
2018-02-19T01:11:11.960Z,1016.68
2018-02-19T01:11:38.053Z,1016.71
2018-02-19T01:12:04.150Z,1016.7
2018-02-19T01:12:30.270Z,1016.69
2018-02-19T01:12:56.364Z,1016.7
2018-02-19T01:13:22.463Z,1016.67
2018-02-19T01:13:48.567Z,1016.66
2018-02-19T01:14:14.665Z,1016.68
2018-02-19T01:14:40.766Z,1016.65
2018-02-19T01:15:06.863Z,1016.67
2018-02-19T01:15:32.959Z,1016.64
2018-02-19T01:15:59.083Z,1016.68
2018-02-19T01:16:25.180Z,1016.6
2018-02-19T01:16:51.285Z,1016.65
2018-02-19T01:17:17.378Z,1016.64
2018-02-19T01:17:43.480Z,1016.69
2018-02-19T01:18:09.575Z,1016.63
2018-02-19T01:18:35.676Z,1016.63
2018-02-19T01:19:01.777Z,1016.62
2018-02-19T01:19:27.882Z,1016.61
2018-02-19T01:19:53.978Z,1016.6
2018-02-19T01:20:20.082Z,1016.64
2018-02-19T01:20:46.184Z,1016.64
2018-02-19T01:21:12.281Z,1016.65
2018-02-19T01:21:38.378Z,1016.61
2018-02-19T01:22:04.484Z,1016.64
2018-02-19T01:22:30.590Z,1016.6
2018-02-19T01:22:56.680Z,1016.66
2018-02-19T01:23:22.784Z,1016.63
2018-02-19T01:23:48.881Z,1016.6
2018-02-19T01:24:14.984Z,1016.62
2018-02-19T01:24:41.077Z,1016.6
2018-02-19T01:25:07.178Z,1016.63
2018-02-19T01:25:33.299Z,1016.57
2018-02-19T01:25:59.394Z,1016.62
2018-02-19T01:26:25.500Z,1016.62
2018-02-19T01:26:51.594Z,1016.59
2018-02-19T01:27:17.698Z,1016.62
2018-02-19T01:27:43.798Z,1016.58
2018-02-19T01:28:09.894Z,1016.57
2018-02-19T01:28:35.998Z,1016.59
2018-02-19T01:29:02.097Z,1016.59
2018-02-19T01:29:28.198Z,1016.56
2018-02-19T01:29:54.291Z,1016.59
2018-02-19T01:30:20.398Z,1016.56
2018-02-19T01:30:46.493Z,1016.56
2018-02-19T01:31:12.594Z,1016.51
2018-02-19T01:31:38.693Z,1016.58
2018-02-19T01:32:04.797Z,1016.55
2018-02-19T01:32:30.894Z,1016.58
2018-02-19T01:32:56.987Z,1016.55
2018-02-19T01:33:23.092Z,1016.59
2018-02-19T01:33:49.195Z,1016.59
2018-02-19T01:34:15.298Z,1016.56
2018-02-19T01:34:41.393Z,1016.55
2018-02-19T01:35:07.497Z,1016.56
2018-02-19T01:35:33.601Z,1016.58
2018-02-19T01:35:59.715Z,1016.53
2018-02-19T01:36:25.811Z,1016.48
2018-02-19T01:36:51.913Z,1016.5
2018-02-19T01:37:18.010Z,1016.48
2018-02-19T01:37:44.105Z,1016.51
2018-02-19T01:38:10.212Z,1016.52
2018-02-19T01:38:36.314Z,1016.47
2018-02-19T01:39:02.408Z,1016.46
2018-02-19T01:39:28.510Z,1016.48
2018-02-19T01:39:54.610Z,1016.52
2018-02-19T01:40:20.717Z,1016.51
2018-02-19T01:40:46.821Z,1016.49
2018-02-19T01:41:12.916Z,1016.47
2018-02-19T01:41:39.021Z,1016.47
2018-02-19T01:42:05.114Z,1016.43
2018-02-19T01:42:31.212Z,1016.41
2018-02-19T01:42:57.312Z,1016.44
2018-02-19T01:43:23.417Z,1016.44
2018-02-19T01:43:49.512Z,1016.46
2018-02-19T01:44:15.611Z,1016.46
2018-02-19T01:44:41.713Z,1016.45
2018-02-19T01:45:07.814Z,1016.4
2018-02-19T01:45:33.925Z,1016.42
2018-02-19T01:46:00.031Z,1016.37
2018-02-19T01:46:26.127Z,1016.39
2018-02-19T01:46:52.254Z,1016.35
2018-02-19T01:47:18.348Z,1016.35
2018-02-19T01:47:44.448Z,1016.32
2018-02-19T01:48:10.542Z,1016.32
2018-02-19T01:48:36.639Z,1016.32
2018-02-19T01:49:02.743Z,1016.34
2018-02-19T01:49:28.838Z,1016.3
2018-02-19T01:49:54.940Z,1016.29
2018-02-19T01:50:21.048Z,1016.27
2018-02-19T01:50:47.140Z,1016.28
2018-02-19T01:51:13.236Z,1016.3
2018-02-19T01:51:39.342Z,1016.27
2018-02-19T01:52:05.437Z,1016.26
2018-02-19T01:52:31.545Z,1016.29
2018-02-19T01:52:57.636Z,1016.27
2018-02-19T01:53:23.741Z,1016.28
2018-02-19T01:53:49.839Z,1016.28
2018-02-19T01:54:15.954Z,1016.3
2018-02-19T01:54:42.053Z,1016.31
2018-02-19T01:55:08.153Z,1016.29
2018-02-19T01:55:34.249Z,1016.27
2018-02-19T01:56:00.349Z,1016.26
2018-02-19T01:56:26.448Z,1016.26
2018-02-19T01:56:52.546Z,1016.22
2018-02-19T01:57:18.639Z,1016.22
2018-02-19T01:57:44.749Z,1016.21
2018-02-19T01:58:10.842Z,1016.17
2018-02-19T01:58:36.947Z,1016.2
2018-02-19T01:59:03.051Z,1016.21
2018-02-19T01:59:29.152Z,1016.21
2018-02-19T01:59:55.252Z,1016.19
2018-02-19T02:00:21.369Z,1016.2
2018-02-19T02:00:47.483Z,1016.16
2018-02-19T02:01:13.586Z,1016.22
2018-02-19T02:01:39.679Z,1016.18
2018-02-19T02:02:05.782Z,1016.21
2018-02-19T02:02:31.884Z,1016.15
2018-02-19T02:02:57.980Z,1016.18
2018-02-19T02:03:24.092Z,1016.23
2018-02-19T02:03:50.193Z,1016.18
2018-02-19T02:04:16.293Z,1016.18
2018-02-19T02:04:42.387Z,1016.18
2018-02-19T02:05:08.507Z,1016.18
2018-02-19T02:05:34.609Z,1016.19
2018-02-19T02:06:00.707Z,1016.19
2018-02-19T02:06:26.806Z,1016.22
2018-02-19T02:06:52.903Z,1016.18
2018-02-19T02:07:19.005Z,1016.2
2018-02-19T02:07:45.109Z,1016.2
2018-02-19T02:08:11.209Z,1016.18
2018-02-19T02:08:37.306Z,1016.22
2018-02-19T02:09:03.407Z,1016.2
2018-02-19T02:09:29.503Z,1016.22
2018-02-19T02:09:55.620Z,1016.22
2018-02-19T02:10:21.718Z,1016.21
2018-02-19T02:10:47.821Z,1016.21
2018-02-19T02:11:13.921Z,1016.21
2018-02-19T02:11:40.036Z,1016.2
2018-02-19T02:12:06.138Z,1016.21
2018-02-19T02:12:32.242Z,1016.18
2018-02-19T02:12:58.341Z,1016.19
2018-02-19T02:13:24.436Z,1016.2
2018-02-19T02:13:50.538Z,1016.2
2018-02-19T02:14:16.634Z,1016.17
2018-02-19T02:14:42.752Z,1016.19
2018-02-19T02:15:08.852Z,1016.19
2018-02-19T02:15:34.951Z,1016.17
2018-02-19T02:16:01.066Z,1016.17
2018-02-19T02:16:27.161Z,1016.13
2018-02-19T02:16:53.259Z,1016.13
2018-02-19T02:17:19.364Z,1016.08
2018-02-19T02:17:45.462Z,1016.1
2018-02-19T02:18:11.560Z,1016.09
2018-02-19T02:18:37.664Z,1016.1
2018-02-19T02:19:03.764Z,1016.09
2018-02-19T02:19:29.878Z,1016.09
2018-02-19T02:19:56.007Z,1016.11
2018-02-19T02:20:22.105Z,1016.1
2018-02-19T02:20:48.203Z,1016.1
2018-02-19T02:21:14.303Z,1016.12
2018-02-19T02:21:40.405Z,1016.13
2018-02-19T02:22:06.509Z,1016.11
2018-02-19T02:22:32.611Z,1016.06
2018-02-19T02:22:58.707Z,1016.08
2018-02-19T02:23:24.828Z,1016.07
2018-02-19T02:23:50.941Z,1016.1
2018-02-19T02:24:17.039Z,1016.13
2018-02-19T02:24:43.135Z,1016.13
2018-02-19T02:25:09.231Z,1016.13
2018-02-19T02:25:35.334Z,1016.09
2018-02-19T02:26:01.430Z,1016.09
2018-02-19T02:26:27.532Z,1016.09
2018-02-19T02:26:53.636Z,1016.09
2018-02-19T02:27:19.729Z,1016.09
2018-02-19T02:27:45.853Z,1016.07
2018-02-19T02:28:11.950Z,1016.06
2018-02-19T02:28:38.042Z,1016.06
2018-02-19T02:29:04.147Z,1016.07
2018-02-19T02:29:30.255Z,1016.02
2018-02-19T02:29:56.358Z,1016.04
2018-02-19T02:30:22.476Z,1016.05
2018-02-19T02:30:48.572Z,1016.08
2018-02-19T02:31:14.670Z,1016.05
2018-02-19T02:31:40.772Z,1016.07
2018-02-19T02:32:06.876Z,1016.05
2018-02-19T02:32:32.992Z,1016.02
2018-02-19T02:32:59.091Z,1016.02
2018-02-19T02:33:25.226Z,1016.03
2018-02-19T02:33:51.312Z,1016.03
2018-02-19T02:34:17.423Z,1016
2018-02-19T02:34:43.520Z,1015.99
2018-02-19T02:35:09.624Z,1016
2018-02-19T02:35:35.716Z,1016.02
2018-02-19T02:36:01.819Z,1015.98
2018-02-19T02:36:27.914Z,1016.02
2018-02-19T02:36:54.016Z,1016.01
2018-02-19T02:37:20.121Z,1016.02
2018-02-19T02:37:46.219Z,1016.01
2018-02-19T02:38:12.304Z,1016.01
2018-02-19T02:38:38.417Z,1015.99
2018-02-19T02:39:04.539Z,1016.01
2018-02-19T02:39:30.641Z,1015.98
2018-02-19T02:39:56.753Z,1015.98
2018-02-19T02:40:22.848Z,1016
2018-02-19T02:40:48.948Z,1015.99
2018-02-19T02:41:15.057Z,1015.98
2018-02-19T02:41:41.175Z,1015.96
2018-02-19T02:42:07.274Z,1016.03
2018-02-19T02:42:33.374Z,1015.98
2018-02-19T02:42:59.474Z,1015.95
2018-02-19T02:43:25.575Z,1015.99
2018-02-19T02:43:51.681Z,1016.01
2018-02-19T02:44:17.784Z,1015.98
2018-02-19T02:44:43.879Z,1015.98
2018-02-19T02:45:09.980Z,1016.01
2018-02-19T02:45:36.080Z,1016
2018-02-19T02:46:02.205Z,1016
2018-02-19T02:46:28.308Z,1016
2018-02-19T02:46:54.412Z,1016.02
2018-02-19T02:47:20.513Z,1016.03
2018-02-19T02:47:46.616Z,1016
2018-02-19T02:48:12.709Z,1015.99
2018-02-19T02:48:38.842Z,1016.01
2018-02-19T02:49:04.928Z,1016.03
2018-02-19T02:49:31.025Z,1016.03
2018-02-19T02:49:57.127Z,1016.07
2018-02-19T02:50:23.224Z,1016.03
2018-02-19T02:50:49.350Z,1016.05
2018-02-19T02:51:15.422Z,1016.03
2018-02-19T02:51:41.524Z,1016.02
2018-02-19T02:52:07.638Z,1016.03
2018-02-19T02:52:33.743Z,1016.01
2018-02-19T02:52:59.843Z,1016.02
2018-02-19T02:53:25.937Z,1015.99
2018-02-19T02:53:52.037Z,1016
2018-02-19T02:54:18.144Z,1016.01
2018-02-19T02:54:44.243Z,1015.97
2018-02-19T02:55:10.339Z,1015.96
2018-02-19T02:55:36.436Z,1015.99
2018-02-19T02:56:02.541Z,1016.01
2018-02-19T02:56:28.641Z,1015.94
2018-02-19T02:56:54.737Z,1015.98
2018-02-19T02:57:20.836Z,1016.03
2018-02-19T02:57:46.954Z,1015.99
2018-02-19T02:58:13.054Z,1016.01
2018-02-19T02:58:39.146Z,1016.03
2018-02-19T02:59:05.269Z,1016.04
2018-02-19T02:59:31.391Z,1016.01
2018-02-19T02:59:57.502Z,1016.01
2018-02-19T03:00:23.612Z,1016.02
2018-02-19T03:00:49.722Z,1016.02
2018-02-19T03:01:15.828Z,1016.03
2018-02-19T03:01:41.929Z,1015.99
2018-02-19T03:02:08.028Z,1016.02
2018-02-19T03:02:34.130Z,1016.01
2018-02-19T03:03:00.227Z,1016
2018-02-19T03:03:26.326Z,1016.01
2018-02-19T03:03:52.429Z,1016
2018-02-19T03:04:18.523Z,1016
2018-02-19T03:04:44.627Z,1015.98
2018-02-19T03:05:10.731Z,1015.97
2018-02-19T03:05:36.834Z,1015.95
2018-02-19T03:06:02.925Z,1015.97
2018-02-19T03:06:29.025Z,1015.97
2018-02-19T03:06:55.128Z,1015.97
2018-02-19T03:07:21.223Z,1015.95
2018-02-19T03:07:47.329Z,1015.96
2018-02-19T03:08:13.423Z,1015.97
2018-02-19T03:08:39.531Z,1015.96
2018-02-19T03:09:05.622Z,1015.97
2018-02-19T03:09:31.717Z,1015.92
2018-02-19T03:09:57.817Z,1015.95
2018-02-19T03:10:23.936Z,1015.92
2018-02-19T03:10:50.036Z,1015.93
2018-02-19T03:11:16.138Z,1015.9
2018-02-19T03:11:42.253Z,1015.9
2018-02-19T03:12:08.350Z,1015.89
2018-02-19T03:12:34.451Z,1015.89
2018-02-19T03:13:00.585Z,1015.88
2018-02-19T03:13:26.686Z,1015.86
2018-02-19T03:13:52.779Z,1015.86
2018-02-19T03:14:18.909Z,1015.85
2018-02-19T03:14:45.012Z,1015.83
2018-02-19T03:15:11.131Z,1015.86
2018-02-19T03:15:37.254Z,1015.85
2018-02-19T03:16:03.351Z,1015.82
2018-02-19T03:16:29.447Z,1015.85
2018-02-19T03:16:55.555Z,1015.86
2018-02-19T03:17:21.645Z,1015.84
2018-02-19T03:17:47.750Z,1015.83
2018-02-19T03:18:13.849Z,1015.8
2018-02-19T03:18:39.951Z,1015.81
2018-02-19T03:19:06.062Z,1015.77
2018-02-19T03:19:32.162Z,1015.79
2018-02-19T03:19:58.261Z,1015.8
2018-02-19T03:20:24.381Z,1015.81
2018-02-19T03:20:50.483Z,1015.77
2018-02-19T03:21:16.587Z,1015.82
2018-02-19T03:21:42.689Z,1015.83
2018-02-19T03:22:08.786Z,1015.83
2018-02-19T03:22:34.907Z,1015.86
2018-02-19T03:23:01.005Z,1015.86
2018-02-19T03:23:27.098Z,1015.83
2018-02-19T03:23:53.199Z,1015.83
2018-02-19T03:24:19.304Z,1015.82
2018-02-19T03:24:45.402Z,1015.83
2018-02-19T03:25:11.498Z,1015.75
2018-02-19T03:25:37.599Z,1015.8
2018-02-19T03:26:03.699Z,1015.82
2018-02-19T03:26:29.797Z,1015.79
2018-02-19T03:26:55.894Z,1015.8
2018-02-19T03:27:21.995Z,1015.81
2018-02-19T03:27:48.098Z,1015.81
2018-02-19T03:28:14.193Z,1015.81
2018-02-19T03:28:40.290Z,1015.79
2018-02-19T03:29:06.393Z,1015.8
2018-02-19T03:29:32.489Z,1015.78
2018-02-19T03:29:58.590Z,1015.79
2018-02-19T03:30:24.710Z,1015.77
2018-02-19T03:30:50.814Z,1015.74
2018-02-19T03:31:16.907Z,1015.71
2018-02-19T03:31:43.009Z,1015.77
2018-02-19T03:32:09.110Z,1015.75
2018-02-19T03:32:35.207Z,1015.73
2018-02-19T03:33:01.305Z,1015.71
2018-02-19T03:33:27.406Z,1015.67
2018-02-19T03:33:53.507Z,1015.71
2018-02-19T03:34:19.604Z,1015.71
2018-02-19T03:34:45.707Z,1015.73
2018-02-19T03:35:11.809Z,1015.7
2018-02-19T03:35:37.908Z,1015.73
2018-02-19T03:36:04.012Z,1015.72
2018-02-19T03:36:30.124Z,1015.7
2018-02-19T03:36:56.229Z,1015.75
2018-02-19T03:37:22.329Z,1015.73
2018-02-19T03:37:48.477Z,1015.73
2018-02-19T03:38:14.538Z,1015.74
2018-02-19T03:38:40.642Z,1015.76
2018-02-19T03:39:06.742Z,1015.74
2018-02-19T03:39:32.842Z,1015.76
2018-02-19T03:39:58.946Z,1015.74
2018-02-19T03:40:25.041Z,1015.74
2018-02-19T03:40:51.135Z,1015.78
2018-02-19T03:41:17.239Z,1015.74
2018-02-19T03:41:43.357Z,1015.72
2018-02-19T03:42:09.454Z,1015.72
2018-02-19T03:42:35.556Z,1015.72
2018-02-19T03:43:01.652Z,1015.69
2018-02-19T03:43:27.755Z,1015.73
2018-02-19T03:43:53.854Z,1015.7
2018-02-19T03:44:19.952Z,1015.68
2018-02-19T03:44:46.072Z,1015.68
2018-02-19T03:45:12.169Z,1015.69
2018-02-19T03:45:38.274Z,1015.67
2018-02-19T03:46:04.374Z,1015.68
2018-02-19T03:46:30.468Z,1015.67
2018-02-19T03:46:56.571Z,1015.68
2018-02-19T03:47:22.669Z,1015.7
2018-02-19T03:47:48.773Z,1015.62
2018-02-19T03:48:14.869Z,1015.66
2018-02-19T03:48:40.966Z,1015.68
2018-02-19T03:49:07.069Z,1015.68
2018-02-19T03:49:33.166Z,1015.65
2018-02-19T03:49:59.273Z,1015.63
2018-02-19T03:50:25.374Z,1015.64
2018-02-19T03:50:51.472Z,1015.62
2018-02-19T03:51:17.566Z,1015.64
2018-02-19T03:51:43.667Z,1015.62
2018-02-19T03:52:09.775Z,1015.64
2018-02-19T03:52:35.865Z,1015.61
2018-02-19T03:53:01.969Z,1015.59
2018-02-19T03:53:28.068Z,1015.57
2018-02-19T03:53:54.176Z,1015.6
2018-02-19T03:54:20.287Z,1015.58
2018-02-19T03:54:46.382Z,1015.54
2018-02-19T03:55:12.485Z,1015.56
2018-02-19T03:55:38.633Z,1015.51
2018-02-19T03:56:04.680Z,1015.57
2018-02-19T03:56:30.779Z,1015.53
2018-02-19T03:56:56.875Z,1015.51
2018-02-19T03:57:22.973Z,1015.51
2018-02-19T03:57:49.076Z,1015.51
2018-02-19T03:58:15.176Z,1015.49
2018-02-19T03:58:41.282Z,1015.5
2018-02-19T03:59:07.375Z,1015.54
2018-02-19T03:59:33.473Z,1015.53
2018-02-19T03:59:59.576Z,1015.52
2018-02-19T04:00:25.678Z,1015.52
2018-02-19T04:00:51.772Z,1015.48
2018-02-19T04:01:17.882Z,1015.49
2018-02-19T04:01:43.979Z,1015.49
2018-02-19T04:02:10.078Z,1015.46
2018-02-19T04:02:36.179Z,1015.49
2018-02-19T04:03:02.280Z,1015.46
2018-02-19T04:03:28.378Z,1015.46
2018-02-19T04:03:54.480Z,1015.44
2018-02-19T04:04:20.574Z,1015.42
2018-02-19T04:04:46.679Z,1015.4
2018-02-19T04:05:12.780Z,1015.39
2018-02-19T04:05:38.878Z,1015.41
2018-02-19T04:06:04.982Z,1015.44
2018-02-19T04:06:31.077Z,1015.44
2018-02-19T04:06:57.201Z,1015.41
2018-02-19T04:07:23.308Z,1015.4
2018-02-19T04:07:49.413Z,1015.36
2018-02-19T04:08:15.529Z,1015.37
2018-02-19T04:08:41.621Z,1015.35
2018-02-19T04:09:07.725Z,1015.37
2018-02-19T04:09:33.824Z,1015.36
2018-02-19T04:09:59.926Z,1015.37
2018-02-19T04:10:26.072Z,1015.37
2018-02-19T04:10:52.140Z,1015.37
2018-02-19T04:11:18.235Z,1015.39
2018-02-19T04:11:44.335Z,1015.36
2018-02-19T04:12:10.439Z,1015.34
2018-02-19T04:12:36.533Z,1015.38
2018-02-19T04:13:02.630Z,1015.34
2018-02-19T04:13:28.735Z,1015.33
2018-02-19T04:13:54.829Z,1015.32
2018-02-19T04:14:20.968Z,1015.3
2018-02-19T04:14:47.071Z,1015.27
2018-02-19T04:15:13.165Z,1015.27
2018-02-19T04:15:39.261Z,1015.25
2018-02-19T04:16:05.379Z,1015.26
2018-02-19T04:16:31.478Z,1015.28
2018-02-19T04:16:57.583Z,1015.26
2018-02-19T04:17:23.697Z,1015.26
2018-02-19T04:17:49.799Z,1015.24
2018-02-19T04:18:15.893Z,1015.23
2018-02-19T04:18:42.005Z,1015.23
2018-02-19T04:19:08.101Z,1015.23
2018-02-19T04:19:34.202Z,1015.24
2018-02-19T04:20:00.301Z,1015.23
2018-02-19T04:20:26.414Z,1015.24
2018-02-19T04:20:52.509Z,1015.23
2018-02-19T04:21:18.610Z,1015.19
2018-02-19T04:21:44.717Z,1015.19
2018-02-19T04:22:10.828Z,1015.22
2018-02-19T04:22:36.928Z,1015.22
2018-02-19T04:23:03.044Z,1015.18
2018-02-19T04:23:29.157Z,1015.17
2018-02-19T04:23:55.263Z,1015.19
2018-02-19T04:24:21.353Z,1015.18
2018-02-19T04:24:47.451Z,1015.14
2018-02-19T04:25:13.557Z,1015.18
2018-02-19T04:25:39.650Z,1015.15
2018-02-19T04:26:05.751Z,1015.16
2018-02-19T04:26:31.850Z,1015.16
2018-02-19T04:26:57.953Z,1015.12
2018-02-19T04:27:24.085Z,1015.12
2018-02-19T04:27:50.200Z,1015.1
2018-02-19T04:28:16.295Z,1015.12
2018-02-19T04:28:42.393Z,1015.1
2018-02-19T04:29:08.495Z,1015.1
2018-02-19T04:29:34.598Z,1015.1
2018-02-19T04:30:00.695Z,1015.09
2018-02-19T04:30:26.795Z,1015.11
2018-02-19T04:30:52.891Z,1015.09
2018-02-19T04:31:18.987Z,1015.08
2018-02-19T04:31:45.107Z,1015.08
2018-02-19T04:32:11.218Z,1015.11
2018-02-19T04:32:37.321Z,1015.07
2018-02-19T04:33:03.425Z,1015.08
2018-02-19T04:33:29.521Z,1015.12
2018-02-19T04:33:55.621Z,1015.08
2018-02-19T04:34:21.728Z,1015.11
2018-02-19T04:34:47.829Z,1015.06
2018-02-19T04:35:13.923Z,1015.09
2018-02-19T04:35:40.024Z,1015.07
2018-02-19T04:36:06.138Z,1015.05
2018-02-19T04:36:32.237Z,1015.08
2018-02-19T04:36:58.339Z,1015.07
2018-02-19T04:37:24.442Z,1015.07
2018-02-19T04:37:50.538Z,1015.07
2018-02-19T04:38:16.640Z,1015.1
2018-02-19T04:38:42.735Z,1015.09
2018-02-19T04:39:08.839Z,1015.09
2018-02-19T04:39:34.939Z,1015.13
2018-02-19T04:40:01.036Z,1015.11
2018-02-19T04:40:27.134Z,1015.12
2018-02-19T04:40:53.248Z,1015.11
2018-02-19T04:41:19.347Z,1015.08
2018-02-19T04:41:45.449Z,1015.07
2018-02-19T04:42:11.558Z,1015.11
2018-02-19T04:42:37.640Z,1015.07
2018-02-19T04:43:03.744Z,1015.04
2018-02-19T04:43:29.840Z,1015.07
2018-02-19T04:43:55.947Z,1015.07
2018-02-19T04:44:22.051Z,1015.03
2018-02-19T04:44:48.144Z,1015.07
2018-02-19T04:45:14.246Z,1015.06
2018-02-19T04:45:40.343Z,1015.08
2018-02-19T04:46:06.440Z,1015.02
2018-02-19T04:46:32.538Z,1015.05
2018-02-19T04:46:58.646Z,1015.03
2018-02-19T04:47:24.743Z,1015.05
2018-02-19T04:47:50.840Z,1015.01
2018-02-19T04:48:16.940Z,1015.04
2018-02-19T04:48:43.044Z,1015.02
2018-02-19T04:49:09.138Z,1015.05
2018-02-19T04:49:35.245Z,1015.04
2018-02-19T04:50:01.345Z,1015
2018-02-19T04:50:27.445Z,1015.03
2018-02-19T04:50:53.544Z,1015.04
2018-02-19T04:51:19.649Z,1015.04
2018-02-19T04:51:45.742Z,1015.03
2018-02-19T04:52:11.847Z,1015.03
2018-02-19T04:52:37.961Z,1015.05
2018-02-19T04:53:04.065Z,1015.02
2018-02-19T04:53:30.161Z,1015.04
2018-02-19T04:53:56.260Z,1015.01
2018-02-19T04:54:22.359Z,1015.04
2018-02-19T04:54:48.460Z,1015.03
2018-02-19T04:55:14.558Z,1015.09
2018-02-19T04:55:40.661Z,1015.05
2018-02-19T04:56:06.780Z,1015.07
2018-02-19T04:56:32.876Z,1015.07
2018-02-19T04:56:58.979Z,1015.06
2018-02-19T04:57:25.080Z,1015.02
2018-02-19T04:57:51.177Z,1015.03
2018-02-19T04:58:17.280Z,1015.05
2018-02-19T04:58:43.379Z,1015.03
2018-02-19T04:59:09.480Z,1014.96
2018-02-19T04:59:35.579Z,1014.98
2018-02-19T05:00:01.677Z,1014.98
2018-02-19T05:00:27.780Z,1014.98
2018-02-19T05:00:53.878Z,1014.93
2018-02-19T05:01:19.982Z,1014.97
2018-02-19T05:01:46.079Z,1014.98
2018-02-19T05:02:12.196Z,1014.95
2018-02-19T05:02:38.297Z,1014.96
2018-02-19T05:03:04.469Z,1014.97
2018-02-19T05:03:30.497Z,1015
2018-02-19T05:03:56.600Z,1014.99
2018-02-19T05:04:22.700Z,1015.02
2018-02-19T05:04:48.814Z,1015.02
2018-02-19T05:05:14.911Z,1015.04
2018-02-19T05:05:41.019Z,1015.01
2018-02-19T05:06:07.136Z,1015.1
2018-02-19T05:06:33.235Z,1015.03
2018-02-19T05:06:59.332Z,1015.09
2018-02-19T05:07:25.432Z,1015.09
2018-02-19T05:07:51.545Z,1015.12
2018-02-19T05:08:17.648Z,1015.08
2018-02-19T05:08:43.749Z,1015.07
2018-02-19T05:09:09.850Z,1015.08
2018-02-19T05:09:35.970Z,1015.08
2018-02-19T05:10:02.068Z,1015.1
2018-02-19T05:10:28.168Z,1015.09
2018-02-19T05:10:54.268Z,1015.08
2018-02-19T05:11:20.365Z,1015.07
2018-02-19T05:11:46.468Z,1015.07
2018-02-19T05:12:12.563Z,1015.06
2018-02-19T05:12:38.667Z,1015.07
2018-02-19T05:13:04.772Z,1015.07
2018-02-19T05:13:30.865Z,1015.07
2018-02-19T05:13:56.966Z,1015.07
2018-02-19T05:14:23.064Z,1015.08
2018-02-19T05:14:49.163Z,1015.03
2018-02-19T05:15:15.264Z,1015.08
2018-02-19T05:15:41.361Z,1015.08
2018-02-19T05:16:07.462Z,1015.06
2018-02-19T05:16:33.576Z,1015.07
2018-02-19T05:16:59.677Z,1015.06
2018-02-19T05:17:25.774Z,1015.05